PWSweather.com
Personal Weather Stations
Station Observations

PoschiavoCH

Lat: 46.31962499999999, Lon: 10.066551000000004

Elevation: 3517

Station Type: WH 1080

http://www.meteoposchiavo.com

High Low Average
Temperature 100.0°F37.8°C 66.0°F18.9°C 81.0°F27.2°C
Dew Point 62.2°F16.8°C 44.0°F6.7°C 51.9°F11.1°C
Winds 1.2 mph 1.9 kmh Calm Calm Calm SCalm S
Wind Gusts 2.3 mph3.7 kmh -- --
Humidity 69% 17% 40%
Pressure 26.74 in905.5 mb 26.62 in901.5 mb -
Precipitation 0.00 in0.0 mm - -
Hour Temp Dew Point Humidity Winds Wind Gusts Pressure Precip Precip Rate Daily Precip Total
12:00 AM 72.0°F22.2°C 56.4°F13.6°C 58% Calm Calm -- 26.74 in905.5 mb - 0.00 in0.0 mm 0.00 in0.0 mm
12:10 AM 72.0°F22.2°C 54.9°F12.7°C 55% Calm Calm -- 26.74 in905.5 mb - 0.00 in0.0 mm 0.00 in0.0 mm
12:15 AM 72.0°F22.2°C 53.4°F11.9°C 52% Calm Calm 1.2 mph1.9 kmh 26.74 in905.5 mb - 0.00 in0.0 mm 0.00 in0.0 mm
12:20 AM 72.0°F22.2°C 54.4°F12.4°C 54% Calm Calm 1.2 mph1.9 kmh 26.74 in905.5 mb - 0.00 in0.0 mm 0.00 in0.0 mm
12:25 AM 72.0°F22.2°C 55.4°F13.0°C 56% Calm Calm -- 26.74 in905.5 mb - 0.00 in0.0 mm 0.00 in0.0 mm
12:30 AM 71.0°F21.7°C 54.0°F12.2°C 55% Calm Calm -- 26.73 in905.2 mb - 0.00 in0.0 mm 0.00 in0.0 mm
12:35 AM 71.0°F21.7°C 54.5°F12.5°C 56% Calm Calm -- 26.73 in905.2 mb - 0.00 in0.0 mm 0.00 in0.0 mm
12:40 AM 71.0°F21.7°C 55.0°F12.8°C 57% Calm Calm -- 26.73 in905.2 mb - 0.00 in0.0 mm 0.00 in0.0 mm
12:45 AM 71.0°F21.7°C 54.0°F12.2°C 55% Calm Calm -- 26.74 in905.5 mb - 0.00 in0.0 mm 0.00 in0.0 mm
12:50 AM 71.0°F21.7°C 55.9°F13.3°C 59% Calm Calm -- 26.73 in905.2 mb - 0.00 in0.0 mm 0.00 in0.0 mm
12:55 AM 70.2°F21.2°C 56.1°F13.4°C 61% Calm Calm -- 26.73 in905.2 mb - 0.00 in0.0 mm 0.00 in0.0 mm
01:00 AM 70.0°F21.1°C 56.4°F13.6°C 62% Calm Calm -- 26.73 in905.2 mb - 0.00 in0.0 mm 0.00 in0.0 mm
01:10 AM 70.0°F21.1°C 54.1°F12.3°C 57% Calm Calm -- 26.74 in905.5 mb - 0.00 in0.0 mm 0.00 in0.0 mm
01:15 AM 71.0°F21.7°C 55.0°F12.8°C 57% Calm Calm 1.2 mph1.9 kmh 26.73 in905.2 mb - 0.00 in0.0 mm 0.00 in0.0 mm
01:20 AM 70.0°F21.1°C 54.1°F12.3°C 57% Calm Calm -- 26.74 in905.5 mb - 0.00 in0.0 mm 0.00 in0.0 mm
01:25 AM 70.0°F21.1°C 54.1°F12.3°C 57% Calm Calm -- 26.73 in905.2 mb - 0.00 in0.0 mm 0.00 in0.0 mm
01:30 AM 70.0°F21.1°C 53.6°F12.0°C 56% Calm Calm -- 26.73 in905.2 mb - 0.00 in0.0 mm 0.00 in0.0 mm
01:35 AM 70.0°F21.1°C 53.6°F12.0°C 56% Calm Calm -- 26.73 in905.2 mb - 0.00 in0.0 mm 0.00 in0.0 mm
01:40 AM 71.0°F21.7°C 54.0°F12.2°C 55% Calm Calm -- 26.73 in905.2 mb - 0.00 in0.0 mm 0.00 in0.0 mm
01:45 AM 71.0°F21.7°C 53.0°F11.7°C 53% Calm Calm -- 26.72 in904.8 mb - 0.00 in0.0 mm 0.00 in0.0 mm
01:50 AM 71.0°F21.7°C 54.5°F12.5°C 56% Calm Calm -- 26.73 in905.2 mb - 0.00 in0.0 mm 0.00 in0.0 mm
01:55 AM 72.0°F22.2°C 53.9°F12.2°C 53% Calm Calm -- 26.72 in904.8 mb - 0.00 in0.0 mm 0.00 in0.0 mm
02:00 AM 72.0°F22.2°C 53.4°F11.9°C 52% Calm Calm -- 26.72 in904.8 mb - 0.00 in0.0 mm 0.00 in0.0 mm
02:10 AM 72.0°F22.2°C 53.4°F11.9°C 52% Calm Calm 1.2 mph1.9 kmh 26.72 in904.8 mb - 0.00 in0.0 mm 0.00 in0.0 mm
02:15 AM 72.0°F22.2°C 53.4°F11.9°C 52% Calm Calm -- 26.72 in904.8 mb - 0.00 in0.0 mm 0.00 in0.0 mm
02:20 AM 72.0°F22.2°C 54.4°F12.4°C 54% Calm Calm -- 26.72 in904.8 mb - 0.00 in0.0 mm 0.00 in0.0 mm
02:25 AM 72.0°F22.2°C 54.4°F12.4°C 54% Calm Calm -- 26.72 in904.8 mb - 0.00 in0.0 mm 0.00 in0.0 mm
02:30 AM 71.0°F21.7°C 53.5°F11.9°C 54% Calm Calm 1.2 mph1.9 kmh 26.72 in904.8 mb - 0.00 in0.0 mm 0.00 in0.0 mm
02:35 AM 71.0°F21.7°C 52.5°F11.4°C 52% Calm Calm 1.2 mph1.9 kmh 26.71 in904.5 mb - 0.00 in0.0 mm 0.00 in0.0 mm
02:40 AM 71.0°F21.7°C 55.0°F12.8°C 57% Calm Calm -- 26.72 in904.8 mb - 0.00 in0.0 mm 0.00 in0.0 mm
02:45 AM 71.0°F21.7°C 55.5°F13.1°C 58% Calm Calm -- 26.72 in904.8 mb - 0.00 in0.0 mm 0.00 in0.0 mm
02:50 AM 71.0°F21.7°C 55.9°F13.3°C 59% Calm Calm -- 26.71 in904.5 mb - 0.00 in0.0 mm 0.00 in0.0 mm
02:55 AM 70.0°F21.1°C 55.0°F12.8°C 59% Calm Calm -- 26.70 in904.2 mb - 0.00 in0.0 mm 0.00 in0.0 mm
03:00 AM 70.0°F21.1°C 52.6°F11.4°C 54% 1.2 mph W1.9 kmh W 1.2 mph1.9 kmh 26.71 in904.5 mb - 0.00 in0.0 mm 0.00 in0.0 mm
03:10 AM 71.0°F21.7°C 54.0°F12.2°C 55% Calm Calm -- 26.71 in904.5 mb - 0.00 in0.0 mm 0.00 in0.0 mm
03:15 AM 71.0°F21.7°C 54.0°F12.2°C 55% Calm Calm -- 26.71 in904.5 mb - 0.00 in0.0 mm 0.00 in0.0 mm
03:20 AM 71.0°F21.7°C 55.0°F12.8°C 57% Calm Calm -- 26.71 in904.5 mb - 0.00 in0.0 mm 0.00 in0.0 mm
03:25 AM 71.0°F21.7°C 55.9°F13.3°C 59% Calm Calm -- 26.71 in904.5 mb - 0.00 in0.0 mm 0.00 in0.0 mm
03:30 AM 70.0°F21.1°C 54.5°F12.5°C 58% Calm Calm -- 26.71 in904.5 mb - 0.00 in0.0 mm 0.00 in0.0 mm
03:35 AM 70.0°F21.1°C 53.1°F11.7°C 55% Calm Calm -- 26.70 in904.2 mb - 0.00 in0.0 mm 0.00 in0.0 mm
03:40 AM 70.0°F21.1°C 53.6°F12.0°C 56% Calm Calm -- 26.70 in904.2 mb - 0.00 in0.0 mm 0.00 in0.0 mm
03:45 AM 71.0°F21.7°C 53.0°F11.7°C 53% Calm Calm 1.2 mph1.9 kmh 26.70 in904.2 mb - 0.00 in0.0 mm 0.00 in0.0 mm
03:50 AM 71.0°F21.7°C 53.0°F11.7°C 53% Calm Calm -- 26.71 in904.5 mb - 0.00 in0.0 mm 0.00 in0.0 mm
03:55 AM 71.5°F21.9°C 52.4°F11.3°C 51% Calm Calm 1.2 mph1.9 kmh 26.70 in904.2 mb - 0.00 in0.0 mm 0.00 in0.0 mm
04:00 AM 72.0°F22.2°C 52.3°F11.3°C 50% 1.2 mph N1.9 kmh N 1.2 mph1.9 kmh 26.70 in904.2 mb - 0.00 in0.0 mm 0.00 in0.0 mm
04:10 AM 71.0°F21.7°C 52.0°F11.1°C 51% Calm Calm -- 26.70 in904.2 mb - 0.00 in0.0 mm 0.00 in0.0 mm
04:15 AM 71.0°F21.7°C 52.0°F11.1°C 51% 1.2 mph NNE1.9 kmh NNE 1.2 mph1.9 kmh 26.69 in903.8 mb - 0.00 in0.0 mm 0.00 in0.0 mm
04:20 AM 72.0°F22.2°C 51.8°F11.0°C 49% Calm Calm -- 26.70 in904.2 mb - 0.00 in0.0 mm 0.00 in0.0 mm
04:25 AM 72.0°F22.2°C 52.9°F11.6°C 51% Calm Calm -- 26.70 in904.2 mb - 0.00 in0.0 mm 0.00 in0.0 mm
04:30 AM 72.0°F22.2°C 52.3°F11.3°C 50% Calm Calm 1.2 mph1.9 kmh 26.70 in904.2 mb - 0.00 in0.0 mm 0.00 in0.0 mm
04:35 AM 72.0°F22.2°C 51.2°F10.7°C 48% 1.2 mph WNW1.9 kmh WNW 1.2 mph1.9 kmh 26.70 in904.2 mb - 0.00 in0.0 mm 0.00 in0.0 mm
04:40 AM 72.0°F22.2°C 51.8°F11.0°C 49% Calm Calm 1.2 mph1.9 kmh 26.70 in904.2 mb - 0.00 in0.0 mm 0.00 in0.0 mm
04:45 AM 72.0°F22.2°C 51.8°F11.0°C 49% Calm Calm -- 26.69 in903.8 mb - 0.00 in0.0 mm 0.00 in0.0 mm
04:50 AM 72.0°F22.2°C 52.9°F11.6°C 51% Calm Calm -- 26.70 in904.2 mb - 0.00 in0.0 mm 0.00 in0.0 mm
04:55 AM 72.0°F22.2°C 51.8°F11.0°C 49% Calm Calm -- 26.70 in904.2 mb - 0.00 in0.0 mm 0.00 in0.0 mm
05:00 AM 72.0°F22.2°C 50.7°F10.4°C 47% Calm Calm -- 26.70 in904.2 mb - 0.00 in0.0 mm 0.00 in0.0 mm
05:10 AM 73.0°F22.8°C 51.6°F10.9°C 47% Calm Calm -- 26.69 in903.8 mb - 0.00 in0.0 mm 0.00 in0.0 mm
05:15 AM 73.0°F22.8°C 52.1°F11.2°C 48% Calm Calm -- 26.70 in904.2 mb - 0.00 in0.0 mm 0.00 in0.0 mm
05:20 AM 73.0°F22.8°C 53.3°F11.8°C 50% Calm Calm 1.2 mph1.9 kmh 26.70 in904.2 mb - 0.00 in0.0 mm 0.00 in0.0 mm
05:25 AM 73.0°F22.8°C 53.3°F11.8°C 50% Calm Calm -- 26.69 in903.8 mb - 0.00 in0.0 mm 0.00 in0.0 mm
05:30 AM 73.0°F22.8°C 53.3°F11.8°C 50% Calm Calm -- 26.70 in904.2 mb - 0.00 in0.0 mm 0.00 in0.0 mm
05:35 AM 72.0°F22.2°C 52.3°F11.3°C 50% Calm Calm -- 26.70 in904.2 mb - 0.00 in0.0 mm 0.00 in0.0 mm
05:40 AM 71.0°F21.7°C 52.0°F11.1°C 51% Calm Calm -- 26.70 in904.2 mb - 0.00 in0.0 mm 0.00 in0.0 mm
05:45 AM 71.0°F21.7°C 52.0°F11.1°C 51% Calm Calm 1.2 mph1.9 kmh 26.70 in904.2 mb - 0.00 in0.0 mm 0.00 in0.0 mm
05:50 AM 71.0°F21.7°C 52.0°F11.1°C 51% Calm Calm 1.2 mph1.9 kmh 26.69 in903.8 mb - 0.00 in0.0 mm 0.00 in0.0 mm
05:55 AM 71.0°F21.7°C 52.0°F11.1°C 51% 1.2 mph N1.9 kmh N 1.2 mph1.9 kmh 26.70 in904.2 mb - 0.00 in0.0 mm 0.00 in0.0 mm
06:00 AM 71.0°F21.7°C 53.5°F11.9°C 54% Calm Calm 1.2 mph1.9 kmh 26.70 in904.2 mb - 0.00 in0.0 mm 0.00 in0.0 mm
06:10 AM 72.0°F22.2°C 52.3°F11.3°C 50% 1.2 mph NNW1.9 kmh NNW 1.2 mph1.9 kmh 26.69 in903.8 mb - 0.00 in0.0 mm 0.00 in0.0 mm
06:15 AM 71.0°F21.7°C 53.5°F11.9°C 54% Calm Calm -- 26.70 in904.2 mb - 0.00 in0.0 mm 0.00 in0.0 mm
06:20 AM 70.0°F21.1°C 55.9°F13.3°C 61% Calm Calm -- 26.70 in904.2 mb - 0.00 in0.0 mm 0.00 in0.0 mm
06:25 AM 69.0°F20.6°C 55.4°F13.0°C 62% Calm Calm -- 26.70 in904.2 mb - 0.00 in0.0 mm 0.00 in0.0 mm
06:30 AM 68.0°F20.0°C 54.9°F12.7°C 63% Calm Calm -- 26.70 in904.2 mb - 0.00 in0.0 mm 0.00 in0.0 mm
06:35 AM 68.0°F20.0°C 55.4°F13.0°C 64% Calm Calm -- 26.71 in904.5 mb - 0.00 in0.0 mm 0.00 in0.0 mm
06:40 AM 68.0°F20.0°C 55.4°F13.0°C 64% Calm Calm -- 26.71 in904.5 mb - 0.00 in0.0 mm 0.00 in0.0 mm
06:45 AM 68.0°F20.0°C 54.9°F12.7°C 63% Calm Calm -- 26.70 in904.2 mb - 0.00 in0.0 mm 0.00 in0.0 mm
06:50 AM 68.0°F20.0°C 56.2°F13.4°C 66% Calm Calm -- 26.70 in904.2 mb - 0.00 in0.0 mm 0.00 in0.0 mm
06:55 AM 67.0°F19.4°C 54.4°F12.4°C 64% Calm Calm -- 26.70 in904.2 mb - 0.00 in0.0 mm 0.00 in0.0 mm
07:00 AM 67.0°F19.4°C 55.7°F13.2°C 67% Calm Calm -- 26.70 in904.2 mb - 0.00 in0.0 mm 0.00 in0.0 mm
07:10 AM 67.0°F19.4°C 56.5°F13.6°C 69% Calm Calm -- 26.70 in904.2 mb - 0.00 in0.0 mm 0.00 in0.0 mm
07:15 AM 67.0°F19.4°C 54.8°F12.7°C 65% Calm Calm -- 26.70 in904.2 mb - 0.00 in0.0 mm 0.00 in0.0 mm
07:20 AM 67.0°F19.4°C 56.5°F13.6°C 69% Calm Calm -- 26.70 in904.2 mb - 0.00 in0.0 mm 0.00 in0.0 mm
07:25 AM 67.0°F19.4°C 55.7°F13.2°C 67% Calm Calm -- 26.70 in904.2 mb - 0.00 in0.0 mm 0.00 in0.0 mm
07:30 AM 67.0°F19.4°C 54.0°F12.2°C 63% Calm Calm -- 26.70 in904.2 mb - 0.00 in0.0 mm 0.00 in0.0 mm
07:35 AM 67.0°F19.4°C 54.8°F12.7°C 65% Calm Calm -- 26.71 in904.5 mb - 0.00 in0.0 mm 0.00 in0.0 mm
07:40 AM 68.0°F20.0°C 55.8°F13.2°C 65% Calm Calm -- 26.71 in904.5 mb - 0.00 in0.0 mm 0.00 in0.0 mm
07:45 AM 69.0°F20.6°C 55.4°F13.0°C 62% Calm Calm -- 26.71 in904.5 mb - 0.00 in0.0 mm 0.00 in0.0 mm
07:50 AM 72.0°F22.2°C 54.9°F12.7°C 55% Calm Calm -- 26.70 in904.2 mb - 0.00 in0.0 mm 0.00 in0.0 mm
07:55 AM 77.0°F25.0°C 55.8°F13.2°C 48% Calm Calm -- 26.70 in904.2 mb - 0.00 in0.0 mm 0.00 in0.0 mm
08:00 AM 81.0°F27.2°C 56.4°F13.6°C 43% Calm Calm -- 26.70 in904.2 mb - 0.00 in0.0 mm 0.00 in0.0 mm
08:10 AM 83.5°F28.6°C 56.7°F13.7°C 40% Calm Calm -- 26.70 in904.2 mb - 0.00 in0.0 mm 0.00 in0.0 mm
08:15 AM 86.0°F30.0°C 57.4°F14.1°C 38% Calm Calm -- 26.69 in903.8 mb - 0.00 in0.0 mm 0.00 in0.0 mm
08:20 AM 87.0°F30.6°C 56.8°F13.8°C 36% Calm Calm -- 26.69 in903.8 mb - 0.00 in0.0 mm 0.00 in0.0 mm
08:25 AM 88.0°F31.1°C 59.9°F15.5°C 39% Calm Calm -- 26.70 in904.2 mb - 0.00 in0.0 mm 0.00 in0.0 mm
08:30 AM 89.0°F31.7°C 58.6°F14.8°C 36% Calm Calm -- 26.70 in904.2 mb - 0.00 in0.0 mm 0.00 in0.0 mm
08:35 AM 87.0°F30.6°C 57.6°F14.2°C 37% Calm Calm -- 26.69 in903.8 mb - 0.00 in0.0 mm 0.00 in0.0 mm
08:40 AM 87.6°F30.9°C 58.8°F14.9°C 38% Calm Calm -- 26.69 in903.8 mb - 0.00 in0.0 mm 0.00 in0.0 mm
08:45 AM 89.0°F31.7°C 60.8°F16.0°C 39% Calm Calm -- 26.70 in904.2 mb - 0.00 in0.0 mm 0.00 in0.0 mm
08:50 AM 89.0°F31.7°C 59.3°F15.2°C 37% Calm Calm -- 26.70 in904.2 mb - 0.00 in0.0 mm 0.00 in0.0 mm
08:55 AM 89.0°F31.7°C 62.2°F16.8°C 41% Calm Calm -- 26.69 in903.8 mb - 0.00 in0.0 mm 0.00 in0.0 mm
09:00 AM 89.0°F31.7°C 61.5°F16.4°C 40% Calm Calm -- 26.69 in903.8 mb - 0.00 in0.0 mm 0.00 in0.0 mm
09:10 AM 89.0°F31.7°C 59.3°F15.2°C 37% Calm Calm -- 26.68 in903.5 mb - 0.00 in0.0 mm 0.00 in0.0 mm
09:15 AM 89.0°F31.7°C 58.6°F14.8°C 36% Calm Calm -- 26.68 in903.5 mb - 0.00 in0.0 mm 0.00 in0.0 mm
09:20 AM 89.0°F31.7°C 62.2°F16.8°C 41% Calm Calm -- 26.68 in903.5 mb - 0.00 in0.0 mm 0.00 in0.0 mm
09:25 AM 89.0°F31.7°C 62.2°F16.8°C 41% Calm Calm -- 26.68 in903.5 mb - 0.00 in0.0 mm 0.00 in0.0 mm
09:30 AM 91.0°F32.8°C 59.5°F15.3°C 35% Calm Calm -- 26.68 in903.5 mb - 0.00 in0.0 mm 0.00 in0.0 mm
09:35 AM 91.0°F32.8°C 60.3°F15.7°C 36% Calm Calm -- 26.68 in903.5 mb - 0.00 in0.0 mm 0.00 in0.0 mm
09:40 AM 92.5°F33.6°C 58.4°F14.7°C 32% Calm Calm -- 26.68 in903.5 mb - 0.00 in0.0 mm 0.00 in0.0 mm
09:45 AM 93.0°F33.9°C 57.9°F14.4°C 31% Calm Calm -- 26.68 in903.5 mb - 0.00 in0.0 mm 0.00 in0.0 mm
09:50 AM 93.0°F33.9°C 50.9°F10.5°C 24% Calm Calm -- 26.67 in903.2 mb - 0.00 in0.0 mm 0.00 in0.0 mm
09:55 AM 95.0°F35.0°C 52.6°F11.4°C 24% Calm Calm 1.2 mph1.9 kmh 26.68 in903.5 mb - 0.00 in0.0 mm 0.00 in0.0 mm
10:00 AM 95.0°F35.0°C 50.2°F10.1°C 22% 1.2 mph NE1.9 kmh NE 1.2 mph1.9 kmh 26.67 in903.2 mb - 0.00 in0.0 mm 0.00 in0.0 mm
10:10 AM 95.0°F35.0°C 53.7°F12.1°C 25% Calm Calm -- 26.67 in903.2 mb - 0.00 in0.0 mm 0.00 in0.0 mm
10:15 AM 95.2°F35.1°C 52.7°F11.5°C 24% Calm Calm 1.2 mph1.9 kmh 26.67 in903.2 mb - 0.00 in0.0 mm 0.00 in0.0 mm
10:20 AM 96.0°F35.6°C 48.5°F9.2°C 20% Calm Calm 1.2 mph1.9 kmh 26.67 in903.2 mb - 0.00 in0.0 mm 0.00 in0.0 mm
10:25 AM 96.0°F35.6°C 55.6°F13.1°C 26% Calm Calm -- 26.67 in903.2 mb - 0.00 in0.0 mm 0.00 in0.0 mm
10:30 AM 96.0°F35.6°C 51.0°F10.6°C 22% Calm Calm -- 26.67 in903.2 mb - 0.00 in0.0 mm 0.00 in0.0 mm
10:35 AM 96.0°F35.6°C 48.5°F9.2°C 20% 1.2 mph NW1.9 kmh NW 2.3 mph3.7 kmh 26.67 in903.2 mb - 0.00 in0.0 mm 0.00 in0.0 mm
10:40 AM 95.0°F35.0°C 51.4°F10.8°C 23% Calm Calm 1.2 mph1.9 kmh 26.67 in903.2 mb - 0.00 in0.0 mm 0.00 in0.0 mm
10:45 AM 95.0°F35.0°C 50.2°F10.1°C 22% Calm Calm 1.2 mph1.9 kmh 26.67 in903.2 mb - 0.00 in0.0 mm 0.00 in0.0 mm
10:50 AM 95.0°F35.0°C 48.9°F9.4°C 21% Calm Calm -- 26.67 in903.2 mb - 0.00 in0.0 mm 0.00 in0.0 mm
10:55 AM 96.0°F35.6°C 48.5°F9.2°C 20% 1.2 mph N1.9 kmh N 1.2 mph1.9 kmh 26.67 in903.2 mb - 0.00 in0.0 mm 0.00 in0.0 mm
11:00 AM 98.0°F36.7°C 53.9°F12.2°C 23% Calm Calm -- 26.66 in902.8 mb - 0.00 in0.0 mm 0.00 in0.0 mm
11:10 AM 98.0°F36.7°C 48.7°F9.3°C 19% Calm Calm -- 26.67 in903.2 mb - 0.00 in0.0 mm 0.00 in0.0 mm
11:15 AM 98.0°F36.7°C 50.1°F10.1°C 20% Calm Calm 1.2 mph1.9 kmh 26.66 in902.8 mb - 0.00 in0.0 mm 0.00 in0.0 mm
11:20 AM 97.0°F36.1°C 49.3°F9.6°C 20% Calm Calm 1.2 mph1.9 kmh 26.66 in902.8 mb - 0.00 in0.0 mm 0.00 in0.0 mm
11:25 AM 97.0°F36.1°C 53.1°F11.7°C 23% Calm Calm 1.2 mph1.9 kmh 26.66 in902.8 mb - 0.00 in0.0 mm 0.00 in0.0 mm
11:30 AM 97.0°F36.1°C 47.9°F8.8°C 19% Calm Calm 1.2 mph1.9 kmh 26.66 in902.8 mb - 0.00 in0.0 mm 0.00 in0.0 mm
11:35 AM 96.0°F35.6°C 48.5°F9.2°C 20% Calm Calm -- 26.67 in903.2 mb - 0.00 in0.0 mm 0.00 in0.0 mm
11:40 AM 97.0°F36.1°C 54.2°F12.3°C 24% Calm Calm 1.2 mph1.9 kmh 26.66 in902.8 mb - 0.00 in0.0 mm 0.00 in0.0 mm
11:45 AM 97.0°F36.1°C 47.9°F8.8°C 19% 1.2 mph WNW1.9 kmh WNW 1.2 mph1.9 kmh 26.67 in903.2 mb - 0.00 in0.0 mm 0.00 in0.0 mm
11:50 AM 97.1°F36.2°C 48.0°F8.9°C 19% 1.2 mph WNW1.9 kmh WNW 1.2 mph1.9 kmh 26.67 in903.2 mb - 0.00 in0.0 mm 0.00 in0.0 mm
11:55 AM 98.0°F36.7°C 50.1°F10.1°C 20% Calm Calm -- 26.65 in902.5 mb - 0.00 in0.0 mm 0.00 in0.0 mm
12:00 PM 99.0°F37.2°C 50.9°F10.5°C 20% Calm Calm -- 26.66 in902.8 mb - 0.00 in0.0 mm 0.00 in0.0 mm
12:10 PM 98.0°F36.7°C 51.4°F10.8°C 21% 1.2 mph NNE1.9 kmh NNE 1.2 mph1.9 kmh 26.66 in902.8 mb - 0.00 in0.0 mm 0.00 in0.0 mm
12:15 PM 98.0°F36.7°C 52.7°F11.5°C 22% Calm Calm -- 26.66 in902.8 mb - 0.00 in0.0 mm 0.00 in0.0 mm
12:20 PM 98.0°F36.7°C 52.7°F11.5°C 22% Calm Calm 1.2 mph1.9 kmh 26.66 in902.8 mb - 0.00 in0.0 mm 0.00 in0.0 mm
12:25 PM 98.0°F36.7°C 51.4°F10.8°C 21% 1.2 mph NE1.9 kmh NE 1.2 mph1.9 kmh 26.65 in902.5 mb - 0.00 in0.0 mm 0.00 in0.0 mm
12:30 PM 98.0°F36.7°C 48.7°F9.3°C 19% Calm Calm -- 26.65 in902.5 mb - 0.00 in0.0 mm 0.00 in0.0 mm
12:35 PM 99.0°F37.2°C 52.2°F11.2°C 21% Calm Calm -- 26.65 in902.5 mb - 0.00 in0.0 mm 0.00 in0.0 mm
12:40 PM 98.0°F36.7°C 51.4°F10.8°C 21% 1.2 mph E1.9 kmh E 1.2 mph1.9 kmh 26.66 in902.8 mb - 0.00 in0.0 mm 0.00 in0.0 mm
12:45 PM 99.0°F37.2°C 49.5°F9.7°C 19% Calm Calm 1.2 mph1.9 kmh 26.66 in902.8 mb - 0.00 in0.0 mm 0.00 in0.0 mm
12:50 PM 99.0°F37.2°C 49.5°F9.7°C 19% Calm Calm 2.3 mph3.7 kmh 26.66 in902.8 mb - 0.00 in0.0 mm 0.00 in0.0 mm
12:55 PM 99.0°F37.2°C 48.1°F8.9°C 18% 1.2 mph SE1.9 kmh SE 2.3 mph3.7 kmh 26.65 in902.5 mb - 0.00 in0.0 mm 0.00 in0.0 mm
01:00 PM 99.0°F37.2°C 46.6°F8.1°C 17% Calm Calm -- 26.65 in902.5 mb - 0.00 in0.0 mm 0.00 in0.0 mm
01:10 PM 100.0°F37.8°C 50.3°F10.2°C 19% Calm Calm -- 26.64 in902.1 mb - 0.00 in0.0 mm 0.00 in0.0 mm
01:15 PM 100.0°F37.8°C 48.9°F9.4°C 18% Calm Calm -- 26.64 in902.1 mb - 0.00 in0.0 mm 0.00 in0.0 mm
01:20 PM 100.0°F37.8°C 48.9°F9.4°C 18% Calm Calm 1.2 mph1.9 kmh 26.64 in902.1 mb - 0.00 in0.0 mm 0.00 in0.0 mm
01:25 PM 100.0°F37.8°C 50.3°F10.2°C 19% Calm Calm 1.2 mph1.9 kmh 26.64 in902.1 mb - 0.00 in0.0 mm 0.00 in0.0 mm
01:30 PM 100.0°F37.8°C 47.4°F8.6°C 17% Calm Calm -- 26.64 in902.1 mb - 0.00 in0.0 mm 0.00 in0.0 mm
01:35 PM 100.0°F37.8°C 54.3°F12.4°C 22% Calm Calm 1.2 mph1.9 kmh 26.64 in902.1 mb - 0.00 in0.0 mm 0.00 in0.0 mm
01:40 PM 99.0°F37.2°C 48.1°F8.9°C 18% Calm Calm -- 26.64 in902.1 mb - 0.00 in0.0 mm 0.00 in0.0 mm
01:45 PM 100.0°F37.8°C 48.9°F9.4°C 18% Calm Calm -- 26.63 in901.8 mb - 0.00 in0.0 mm 0.00 in0.0 mm
01:50 PM 100.0°F37.8°C 50.3°F10.2°C 19% Calm Calm -- 26.63 in901.8 mb - 0.00 in0.0 mm 0.00 in0.0 mm
01:55 PM 99.0°F37.2°C 50.9°F10.5°C 20% Calm Calm -- 26.63 in901.8 mb - 0.00 in0.0 mm 0.00 in0.0 mm
02:00 PM 99.0°F37.2°C 49.5°F9.7°C 19% Calm Calm -- 26.63 in901.8 mb - 0.00 in0.0 mm 0.00 in0.0 mm
02:10 PM 98.0°F36.7°C 52.7°F11.5°C 22% Calm Calm 1.2 mph1.9 kmh 26.63 in901.8 mb - 0.00 in0.0 mm 0.00 in0.0 mm
02:15 PM 98.0°F36.7°C 50.1°F10.1°C 20% Calm Calm -- 26.63 in901.8 mb - 0.00 in0.0 mm 0.00 in0.0 mm
02:20 PM 97.2°F36.2°C 50.7°F10.4°C 21% Calm Calm 1.2 mph1.9 kmh 26.64 in902.1 mb - 0.00 in0.0 mm 0.00 in0.0 mm
02:25 PM 97.0°F36.1°C 50.6°F10.3°C 21% Calm Calm 1.2 mph1.9 kmh 26.64 in902.1 mb - 0.00 in0.0 mm 0.00 in0.0 mm
02:30 PM 97.0°F36.1°C 53.1°F11.7°C 23% Calm Calm -- 26.63 in901.8 mb - 0.00 in0.0 mm 0.00 in0.0 mm
02:35 PM 97.0°F36.1°C 54.2°F12.3°C 24% Calm Calm 1.2 mph1.9 kmh 26.63 in901.8 mb - 0.00 in0.0 mm 0.00 in0.0 mm
02:40 PM 96.0°F35.6°C 47.1°F8.4°C 19% Calm Calm 1.2 mph1.9 kmh 26.63 in901.8 mb - 0.00 in0.0 mm 0.00 in0.0 mm
02:45 PM 95.0°F35.0°C 51.4°F10.8°C 23% 1.2 mph NE1.9 kmh NE 1.2 mph1.9 kmh 26.63 in901.8 mb - 0.00 in0.0 mm 0.00 in0.0 mm
02:50 PM 96.0°F35.6°C 52.2°F11.2°C 23% Calm Calm 1.2 mph1.9 kmh 26.63 in901.8 mb - 0.00 in0.0 mm 0.00 in0.0 mm
02:55 PM 95.7°F35.4°C 52.0°F11.1°C 23% Calm Calm 1.2 mph1.9 kmh 26.63 in901.8 mb - 0.00 in0.0 mm 0.00 in0.0 mm
03:00 PM 95.0°F35.0°C 52.6°F11.4°C 24% 1.2 mph NE1.9 kmh NE 1.2 mph1.9 kmh 26.63 in901.8 mb - 0.00 in0.0 mm 0.00 in0.0 mm
03:10 PM 93.0°F33.9°C 53.0°F11.7°C 26% Calm Calm -- 26.62 in901.5 mb - 0.00 in0.0 mm 0.00 in0.0 mm
03:15 PM 93.0°F33.9°C 54.1°F12.3°C 27% 1.2 mph E1.9 kmh E 2.3 mph3.7 kmh 26.64 in902.1 mb - 0.00 in0.0 mm 0.00 in0.0 mm
03:20 PM 92.0°F33.3°C 55.2°F12.9°C 29% Calm Calm 1.2 mph1.9 kmh 26.62 in901.5 mb - 0.00 in0.0 mm 0.00 in0.0 mm
03:25 PM 92.6°F33.7°C 51.6°F10.9°C 25% Calm Calm 1.2 mph1.9 kmh 26.63 in901.8 mb - 0.00 in0.0 mm 0.00 in0.0 mm
03:30 PM 93.0°F33.9°C 48.5°F9.2°C 22% Calm Calm -- 26.63 in901.8 mb - 0.00 in0.0 mm 0.00 in0.0 mm
03:35 PM 94.0°F34.4°C 51.7°F10.9°C 24% 1.2 mph SE1.9 kmh SE 2.3 mph3.7 kmh 26.63 in901.8 mb - 0.00 in0.0 mm 0.00 in0.0 mm
03:40 PM 94.0°F34.4°C 49.4°F9.7°C 22% Calm Calm -- 26.62 in901.5 mb - 0.00 in0.0 mm 0.00 in0.0 mm
03:45 PM 95.0°F35.0°C 50.2°F10.1°C 22% Calm Calm -- 26.63 in901.8 mb - 0.00 in0.0 mm 0.00 in0.0 mm
03:50 PM 95.0°F35.0°C 47.6°F8.7°C 20% Calm Calm -- 26.63 in901.8 mb - 0.00 in0.0 mm 0.00 in0.0 mm
03:55 PM 95.0°F35.0°C 48.9°F9.4°C 21% Calm Calm -- 26.62 in901.5 mb - 0.00 in0.0 mm 0.00 in0.0 mm
04:00 PM 95.0°F35.0°C 48.9°F9.4°C 21% Calm Calm -- 26.62 in901.5 mb - 0.00 in0.0 mm 0.00 in0.0 mm
04:10 PM 96.0°F35.6°C 49.8°F9.9°C 21% 1.2 mph N1.9 kmh N 1.2 mph1.9 kmh 26.63 in901.8 mb - 0.00 in0.0 mm 0.00 in0.0 mm
04:15 PM 96.0°F35.6°C 48.5°F9.2°C 20% Calm Calm 1.2 mph1.9 kmh 26.63 in901.8 mb - 0.00 in0.0 mm 0.00 in0.0 mm
04:20 PM 94.0°F34.4°C 50.6°F10.3°C 23% Calm Calm 1.2 mph1.9 kmh 26.63 in901.8 mb - 0.00 in0.0 mm 0.00 in0.0 mm
04:25 PM 91.0°F32.8°C 49.2°F9.6°C 24% Calm Calm 1.2 mph1.9 kmh 26.63 in901.8 mb - 0.00 in0.0 mm 0.00 in0.0 mm
04:30 PM 90.7°F32.6°C 50.0°F10.0°C 25% Calm Calm 1.2 mph1.9 kmh 26.63 in901.8 mb - 0.00 in0.0 mm 0.00 in0.0 mm
04:35 PM 90.0°F32.2°C 50.5°F10.3°C 26% Calm Calm -- 26.63 in901.8 mb - 0.00 in0.0 mm 0.00 in0.0 mm
04:40 PM 90.0°F32.2°C 50.5°F10.3°C 26% 1.2 mph NE1.9 kmh NE 1.2 mph1.9 kmh 26.63 in901.8 mb - 0.00 in0.0 mm 0.00 in0.0 mm
04:45 PM 89.0°F31.7°C 48.6°F9.2°C 25% Calm Calm 1.2 mph1.9 kmh 26.63 in901.8 mb - 0.00 in0.0 mm 0.00 in0.0 mm
04:50 PM 89.0°F31.7°C 47.5°F8.6°C 24% Calm Calm -- 26.63 in901.8 mb - 0.00 in0.0 mm 0.00 in0.0 mm
04:55 PM 88.0°F31.1°C 46.7°F8.2°C 24% 1.2 mph NE1.9 kmh NE 2.3 mph3.7 kmh 26.63 in901.8 mb - 0.00 in0.0 mm 0.00 in0.0 mm
05:00 PM 88.0°F31.1°C 47.8°F8.8°C 25% Calm Calm 2.3 mph3.7 kmh 26.63 in901.8 mb - 0.00 in0.0 mm 0.00 in0.0 mm
05:10 PM 87.0°F30.6°C 49.0°F9.4°C 27% Calm Calm 1.2 mph1.9 kmh 26.63 in901.8 mb - 0.00 in0.0 mm 0.00 in0.0 mm
05:15 PM 87.0°F30.6°C 46.9°F8.3°C 25% Calm Calm -- 26.63 in901.8 mb - 0.00 in0.0 mm 0.00 in0.0 mm
05:20 PM 87.0°F30.6°C 50.0°F10.0°C 28% Calm Calm 1.2 mph1.9 kmh 26.63 in901.8 mb - 0.00 in0.0 mm 0.00 in0.0 mm
05:25 PM 86.0°F30.0°C 48.1°F8.9°C 27% Calm Calm -- 26.62 in901.5 mb - 0.00 in0.0 mm 0.00 in0.0 mm
05:30 PM 86.0°F30.0°C 50.0°F10.0°C 29% Calm Calm -- 26.62 in901.5 mb - 0.00 in0.0 mm 0.00 in0.0 mm
05:35 PM 86.0°F30.0°C 50.0°F10.0°C 29% Calm Calm -- 26.62 in901.5 mb - 0.00 in0.0 mm 0.00 in0.0 mm
05:40 PM 86.0°F30.0°C 51.0°F10.6°C 30% Calm Calm -- 26.63 in901.8 mb - 0.00 in0.0 mm 0.00 in0.0 mm
05:45 PM 85.0°F29.4°C 51.0°F10.6°C 31% Calm Calm -- 26.62 in901.5 mb - 0.00 in0.0 mm 0.00 in0.0 mm
05:50 PM 85.0°F29.4°C 49.2°F9.6°C 29% Calm Calm -- 26.63 in901.8 mb - 0.00 in0.0 mm 0.00 in0.0 mm
05:55 PM 84.0°F28.9°C 48.3°F9.1°C 29% Calm Calm 1.2 mph1.9 kmh 26.63 in901.8 mb - 0.00 in0.0 mm 0.00 in0.0 mm
06:00 PM 84.0°F28.9°C 51.0°F10.6°C 32% Calm Calm -- 26.62 in901.5 mb - 0.00 in0.0 mm 0.00 in0.0 mm
06:10 PM 83.0°F28.3°C 52.5°F11.4°C 35% Calm Calm -- 26.63 in901.8 mb - 0.00 in0.0 mm 0.00 in0.0 mm
06:15 PM 83.0°F28.3°C 50.1°F10.1°C 32% Calm Calm -- 26.63 in901.8 mb - 0.00 in0.0 mm 0.00 in0.0 mm
06:20 PM 82.0°F27.8°C 50.1°F10.1°C 33% Calm Calm -- 26.62 in901.5 mb - 0.00 in0.0 mm 0.00 in0.0 mm
06:25 PM 81.0°F27.2°C 48.4°F9.1°C 32% Calm Calm -- 26.63 in901.8 mb - 0.00 in0.0 mm 0.00 in0.0 mm
06:30 PM 81.0°F27.2°C 51.5°F10.8°C 36% Calm Calm -- 26.63 in901.8 mb - 0.00 in0.0 mm 0.00 in0.0 mm
06:35 PM 80.4°F26.9°C 50.2°F10.1°C 35% Calm Calm -- 26.64 in902.1 mb - 0.00 in0.0 mm 0.00 in0.0 mm
06:40 PM 80.0°F26.7°C 49.9°F9.9°C 35% Calm Calm -- 26.64 in902.1 mb - 0.00 in0.0 mm 0.00 in0.0 mm
06:45 PM 79.0°F26.1°C 50.5°F10.3°C 37% Calm Calm -- 26.63 in901.8 mb - 0.00 in0.0 mm 0.00 in0.0 mm
06:50 PM 78.0°F25.6°C 49.6°F9.8°C 37% Calm Calm -- 26.63 in901.8 mb - 0.00 in0.0 mm 0.00 in0.0 mm
06:55 PM 78.0°F25.6°C 51.0°F10.6°C 39% Calm Calm -- 26.64 in902.1 mb - 0.00 in0.0 mm 0.00 in0.0 mm
07:00 PM 77.0°F25.0°C 52.1°F11.2°C 42% Calm Calm -- 26.64 in902.1 mb - 0.00 in0.0 mm 0.00 in0.0 mm
07:10 PM 77.0°F25.0°C 50.1°F10.1°C 39% Calm Calm -- 26.64 in902.1 mb - 0.00 in0.0 mm 0.00 in0.0 mm
07:15 PM 77.0°F25.0°C 48.0°F8.9°C 36% Calm Calm -- 26.63 in901.8 mb - 0.00 in0.0 mm 0.00 in0.0 mm
07:20 PM 76.0°F24.4°C 51.9°F11.1°C 43% Calm Calm -- 26.65 in902.5 mb - 0.00 in0.0 mm 0.00 in0.0 mm
07:25 PM 76.0°F24.4°C 50.6°F10.3°C 41% Calm Calm -- 26.65 in902.5 mb - 0.00 in0.0 mm 0.00 in0.0 mm
07:30 PM 75.0°F23.9°C 49.0°F9.4°C 40% Calm Calm -- 26.65 in902.5 mb - 0.00 in0.0 mm 0.00 in0.0 mm
07:35 PM 75.0°F23.9°C 51.0°F10.6°C 43% Calm Calm -- 26.65 in902.5 mb - 0.00 in0.0 mm 0.00 in0.0 mm
07:40 PM 75.0°F23.9°C 49.0°F9.4°C 40% Calm Calm -- 26.65 in902.5 mb - 0.00 in0.0 mm 0.00 in0.0 mm
07:45 PM 75.0°F23.9°C 47.7°F8.7°C 38% Calm Calm -- 26.65 in902.5 mb - 0.00 in0.0 mm 0.00 in0.0 mm
07:50 PM 76.0°F24.4°C 50.6°F10.3°C 41% Calm Calm -- 26.65 in902.5 mb - 0.00 in0.0 mm 0.00 in0.0 mm
07:55 PM 76.0°F24.4°C 47.1°F8.4°C 36% Calm Calm -- 26.65 in902.5 mb - 0.00 in0.0 mm 0.00 in0.0 mm
08:00 PM 76.0°F24.4°C 50.6°F10.3°C 41% Calm Calm -- 26.66 in902.8 mb - 0.00 in0.0 mm 0.00 in0.0 mm
08:10 PM 75.0°F23.9°C 48.4°F9.1°C 39% Calm Calm -- 26.66 in902.8 mb - 0.00 in0.0 mm 0.00 in0.0 mm
08:15 PM 75.0°F23.9°C 49.0°F9.4°C 40% Calm Calm -- 26.66 in902.8 mb - 0.00 in0.0 mm 0.00 in0.0 mm
08:20 PM 75.0°F23.9°C 52.2°F11.2°C 45% Calm Calm -- 26.66 in902.8 mb - 0.00 in0.0 mm 0.00 in0.0 mm
08:25 PM 74.0°F23.3°C 50.1°F10.1°C 43% Calm Calm -- 26.66 in902.8 mb - 0.00 in0.0 mm 0.00 in0.0 mm
08:30 PM 74.0°F23.3°C 53.1°F11.7°C 48% Calm Calm -- 26.67 in903.2 mb - 0.00 in0.0 mm 0.00 in0.0 mm
08:35 PM 73.0°F22.8°C 47.9°F8.8°C 41% Calm Calm -- 26.67 in903.2 mb - 0.00 in0.0 mm 0.00 in0.0 mm
08:40 PM 73.0°F22.8°C 51.0°F10.6°C 46% Calm Calm -- 26.67 in903.2 mb - 0.00 in0.0 mm 0.00 in0.0 mm
08:45 PM 73.0°F22.8°C 50.4°F10.2°C 45% Calm Calm -- 26.67 in903.2 mb - 0.00 in0.0 mm 0.00 in0.0 mm
08:50 PM 73.0°F22.8°C 49.8°F9.9°C 44% Calm Calm -- 26.67 in903.2 mb - 0.00 in0.0 mm 0.00 in0.0 mm
08:55 PM 73.0°F22.8°C 50.4°F10.2°C 45% Calm Calm -- 26.68 in903.5 mb - 0.00 in0.0 mm 0.00 in0.0 mm
09:00 PM 73.0°F22.8°C 50.4°F10.2°C 45% Calm Calm -- 26.68 in903.5 mb - 0.00 in0.0 mm 0.00 in0.0 mm
09:10 PM 72.0°F22.2°C 48.9°F9.4°C 44% Calm Calm -- 26.68 in903.5 mb - 0.00 in0.0 mm 0.00 in0.0 mm
09:15 PM 72.0°F22.2°C 47.6°F8.7°C 42% Calm Calm -- 26.68 in903.5 mb - 0.00 in0.0 mm 0.00 in0.0 mm
09:20 PM 72.0°F22.2°C 47.6°F8.7°C 42% Calm Calm -- 26.68 in903.5 mb - 0.00 in0.0 mm 0.00 in0.0 mm
09:25 PM 72.0°F22.2°C 47.6°F8.7°C 42% Calm Calm -- 26.69 in903.8 mb - 0.00 in0.0 mm 0.00 in0.0 mm
09:30 PM 71.0°F21.7°C 49.7°F9.8°C 47% Calm Calm -- 26.69 in903.8 mb - 0.00 in0.0 mm 0.00 in0.0 mm
09:35 PM 71.0°F21.7°C 46.1°F7.8°C 41% Calm Calm -- 26.69 in903.8 mb - 0.00 in0.0 mm 0.00 in0.0 mm
09:40 PM 72.0°F22.2°C 48.9°F9.4°C 44% Calm Calm -- 26.69 in903.8 mb - 0.00 in0.0 mm 0.00 in0.0 mm
09:45 PM 72.0°F22.2°C 46.3°F7.9°C 40% Calm Calm -- 26.69 in903.8 mb - 0.00 in0.0 mm 0.00 in0.0 mm
09:50 PM 72.0°F22.2°C 48.9°F9.4°C 44% Calm Calm -- 26.69 in903.8 mb - 0.00 in0.0 mm 0.00 in0.0 mm
09:55 PM 72.0°F22.2°C 48.9°F9.4°C 44% Calm Calm -- 26.69 in903.8 mb - 0.00 in0.0 mm 0.00 in0.0 mm
10:00 PM 72.0°F22.2°C 48.9°F9.4°C 44% Calm Calm -- 26.69 in903.8 mb - 0.00 in0.0 mm 0.00 in0.0 mm
10:10 PM 71.0°F21.7°C 47.4°F8.6°C 43% Calm Calm -- 26.70 in904.2 mb - 0.00 in0.0 mm 0.00 in0.0 mm
10:15 PM 70.0°F21.1°C 49.4°F9.7°C 48% Calm Calm -- 26.70 in904.2 mb - 0.00 in0.0 mm 0.00 in0.0 mm
10:20 PM 71.0°F21.7°C 45.5°F7.5°C 40% Calm Calm -- 26.70 in904.2 mb - 0.00 in0.0 mm 0.00 in0.0 mm
10:25 PM 73.0°F22.8°C 48.5°F9.2°C 42% Calm Calm -- 26.70 in904.2 mb - 0.00 in0.0 mm 0.00 in0.0 mm
10:30 PM 72.6°F22.6°C 48.2°F9.0°C 42% Calm Calm -- 26.70 in904.2 mb - 0.00 in0.0 mm 0.00 in0.0 mm
10:35 PM 72.0°F22.2°C 47.6°F8.7°C 42% Calm Calm -- 26.70 in904.2 mb - 0.00 in0.0 mm 0.00 in0.0 mm
10:40 PM 71.0°F21.7°C 49.2°F9.6°C 46% Calm Calm -- 26.70 in904.2 mb - 0.00 in0.0 mm 0.00 in0.0 mm
10:45 PM 70.0°F21.1°C 45.2°F7.3°C 41% Calm Calm -- 26.70 in904.2 mb - 0.00 in0.0 mm 0.00 in0.0 mm
10:50 PM 70.0°F21.1°C 45.2°F7.3°C 41% Calm Calm -- 26.70 in904.2 mb - 0.00 in0.0 mm 0.00 in0.0 mm
10:55 PM 70.0°F21.1°C 47.1°F8.4°C 44% Calm Calm -- 26.70 in904.2 mb - 0.00 in0.0 mm 0.00 in0.0 mm
11:00 PM 69.0°F20.6°C 49.6°F9.8°C 50% Calm Calm -- 26.70 in904.2 mb - 0.00 in0.0 mm 0.00 in0.0 mm
11:10 PM 69.0°F20.6°C 49.0°F9.4°C 49% Calm Calm -- 26.71 in904.5 mb - 0.00 in0.0 mm 0.00 in0.0 mm
11:15 PM 68.0°F20.0°C 44.0°F6.7°C 42% Calm Calm -- 26.70 in904.2 mb - 0.00 in0.0 mm 0.00 in0.0 mm
11:20 PM 69.0°F20.6°C 50.6°F10.3°C 52% Calm Calm -- 26.71 in904.5 mb - 0.00 in0.0 mm 0.00 in0.0 mm
11:25 PM 67.0°F19.4°C 49.8°F9.9°C 54% Calm Calm -- 26.70 in904.2 mb - 0.00 in0.0 mm 0.00 in0.0 mm
11:30 PM 66.0°F18.9°C 49.4°F9.7°C 55% Calm Calm -- 26.70 in904.2 mb - 0.00 in0.0 mm 0.00 in0.0 mm
11:35 PM 67.0°F19.4°C 48.8°F9.3°C 52% Calm Calm -- 26.70 in904.2 mb - 0.00 in0.0 mm 0.00 in0.0 mm
11:40 PM 66.5°F19.2°C 48.9°F9.4°C 53% Calm Calm -- 26.70 in904.2 mb - 0.00 in0.0 mm 0.00 in0.0 mm
11:45 PM 66.0°F18.9°C 49.4°F9.7°C 55% Calm Calm -- 26.70 in904.2 mb - 0.00 in0.0 mm 0.00 in0.0 mm
11:50 PM 66.0°F18.9°C 46.3°F7.9°C 49% Calm Calm -- 26.71 in904.5 mb - 0.00 in0.0 mm 0.00 in0.0 mm
11:55 PM 67.0°F19.4°C 44.9°F7.2°C 45% Calm Calm -- 26.71 in904.5 mb - 0.00 in0.0 mm 0.00 in0.0 mm